Time;durP1;ratioP1;P1;durP2;ratioP2;P2;SDS_P1;SDS_P2;PMS_P1;PMS_P2;Temp;Humidity;BMP_temperature;BMP_pressure;BME280_temperature;BME280_humidity;BME280_pressure;Samples;Min_cycle;Max_cycle;Signal;HPM_P1;HPM_P2
2024/02/05 00:02:24;;;;;;;26.75;17.65;;;;;;;2.40;100.00;93348.66;5070549;28;20048;-75
2024/02/05 00:04:51;;;;;;;22.67;15.80;;;;;;;2.62;100.00;93384.50;5069318;28;20040;-75
2024/02/05 00:07:19;;;;;;;28.05;18.10;;;;;;;2.54;100.00;93371.81;5072097;28;20057;-75
2024/02/05 00:09:47;;;;;;;26.33;17.77;;;;;;;2.56;100.00;93362.31;5069088;28;20037;-75
2024/02/05 00:12:14;;;;;;;23.08;15.07;;;;;;;2.63;100.00;93354.84;5076100;28;20044;-75
2024/02/05 00:14:42;;;;;;;17.83;11.93;;;;;;;2.58;100.00;93352.03;5070165;28;20044;-75
2024/02/05 00:17:09;;;;;;;20.60;13.30;;;;;;;2.64;100.00;93357.25;5071982;28;20045;-75
2024/02/05 00:19:37;;;;;;;16.75;11.93;;;;;;;2.59;100.00;93356.91;5071025;28;20075;-76
2024/02/05 00:22:04;;;;;;;17.95;12.35;;;;;;;2.65;100.00;93360.59;5077046;28;20156;-76
2024/02/05 00:24:31;;;;;;;18.40;11.35;;;;;;;2.62;100.00;93350.75;5067630;28;20052;-77
2024/02/05 00:26:58;;;;;;;20.75;13.93;;;;;;;2.55;100.00;93350.59;5073897;28;20058;-78
2024/02/05 00:29:25;;;;;;;17.23;12.75;;;;;;;2.57;100.00;93361.34;5074087;28;20044;-78
2024/02/05 00:31:52;;;;;;;19.60;13.48;;;;;;;2.57;100.00;93373.22;5073724;28;20127;-77
2024/02/05 00:34:19;;;;;;;13.70;10.07;;;;;;;2.53;100.00;93358.34;5070421;28;20844;-78
2024/02/05 00:36:47;;;;;;;14.32;9.75;;;;;;;2.46;100.00;93354.81;5071721;28;20044;-78
2024/02/05 00:39:15;;;;;;;12.30;8.32;;;;;;;2.55;100.00;93353.13;5070658;28;20408;-78
2024/02/05 00:41:42;;;;;;;13.85;8.70;;;;;;;2.43;100.00;93327.28;5067782;28;20123;-78
2024/02/05 00:44:09;;;;;;;10.73;6.85;;;;;;;2.33;100.00;93309.69;5071006;28;20056;-77
2024/02/05 00:46:36;;;;;;;9.77;5.82;;;;;;;2.57;100.00;93332.66;5069340;28;20044;-78
2024/02/05 00:49:04;;;;;;;10.13;6.15;;;;;;;2.60;100.00;93334.91;5073614;28;20048;-78
2024/02/05 00:51:31;;;;;;;7.93;5.28;;;;;;;2.43;100.00;93306.19;5068840;28;20080;-79
2024/02/05 00:54:00;;;;;;;11.38;6.32;;;;;;;2.59;100.00;93325.72;5070632;28;20044;-78
2024/02/05 00:56:27;;;;;;;9.52;5.50;;;;;;;2.52;100.00;93325.53;5077417;28;20056;-78
2024/02/05 00:58:54;;;;;;;8.95;5.70;;;;;;;2.60;100.00;93317.16;5070040;28;20126;-78
2024/02/05 01:01:21;;;;;;;9.93;6.05;;;;;;;2.53;100.00;93327.91;5066999;28;20139;-78
2024/02/05 01:03:48;;;;;;;9.25;6.00;;;;;;;2.59;100.00;93316.34;5073199;28;20048;-75
2024/02/05 01:06:15;;;;;;;9.35;5.30;;;;;;;2.62;100.00;93321.09;5074147;28;20489;-77
2024/02/05 01:08:42;;;;;;;7.55;4.80;;;;;;;2.63;100.00;93321.88;5067634;28;20051;-77
2024/02/05 01:11:10;;;;;;;7.32;4.50;;;;;;;2.70;100.00;93327.94;5069103;28;20044;-77
2024/02/05 01:13:37;;;;;;;6.63;4.13;;;;;;;2.76;100.00;93332.38;5069740;28;20522;-77
2024/02/05 01:16:04;;;;;;;7.82;4.63;;;;;;;2.85;100.00;93323.00;5070047;28;20421;-77
2024/02/05 01:18:31;;;;;;;9.05;5.18;;;;;;;2.93;100.00;93315.38;5066506;28;20048;-77
2024/02/05 01:20:59;;;;;;;7.93;5.40;;;;;;;2.97;100.00;93313.34;5067716;28;20570;-77
2024/02/05 01:23:26;;;;;;;9.27;6.07;;;;;;;2.97;100.00;93312.53;5067973;28;20106;-77
2024/02/05 01:25:53;;;;;;;6.82;4.38;;;;;;;2.96;100.00;93316.03;5072868;28;20047;-78
2024/02/05 01:28:21;;;;;;;7.57;4.03;;;;;;;2.90;100.00;93295.41;5076593;28;20124;-77
2024/02/05 01:30:48;;;;;;;6.97;3.53;;;;;;;2.92;100.00;93296.03;5072837;28;20511;-77
2024/02/05 01:33:15;;;;;;;6.13;3.70;;;;;;;2.85;100.00;93287.50;5074064;28;20068;-77
2024/02/05 01:35:42;;;;;;;7.72;4.47;;;;;;;2.86;100.00;93278.91;5078778;28;20058;-76
2024/02/05 01:38:09;;;;;;;7.28;3.92;;;;;;;2.74;100.00;93272.59;5072244;28;20044;-76
2024/02/05 01:40:37;;;;;;;8.32;4.80;;;;;;;2.76;100.00;93271.50;5072689;28;20047;-76
2024/02/05 01:43:04;;;;;;;7.38;4.63;;;;;;;2.80;100.00;93269.41;5072791;28;20496;-76
2024/02/05 01:45:33;;;;;;;6.70;4.35;;;;;;;2.84;100.00;93255.47;5071226;28;20944;-76
2024/02/05 01:48:01;;;;;;;7.75;4.45;;;;;;;2.85;100.00;93254.50;5074953;28;20607;-76
2024/02/05 01:50:28;;;;;;;10.98;6.85;;;;;;;2.91;100.00;93253.88;5073687;28;20044;-76
2024/02/05 01:52:55;;;;;;;9.73;5.57;;;;;;;3.00;100.00;93254.63;5071410;28;20059;-76
2024/02/05 01:55:27;;;;;;;8.60;4.47;;;;;;;3.00;100.00;93257.19;5070753;28;20053;-76
2024/02/05 01:57:55;;;;;;;8.40;5.10;;;;;;;2.83;100.00;93220.09;5072099;28;20063;-77
2024/02/05 02:00:22;;;;;;;6.47;4.18;;;;;;;2.95;100.00;93244.19;5073186;28;20136;-76
2024/02/05 02:02:51;;;;;;;6.95;4.30;;;;;;;2.96;100.00;93248.28;5074046;28;20058;-77
2024/02/05 02:05:20;;;;;;;5.55;3.28;;;;;;;3.01;100.00;93247.84;5077401;28;20040;-77
2024/02/05 02:07:47;;;;;;;6.78;3.83;;;;;;;3.13;100.00;93254.13;5070140;28;20459;-77
2024/02/05 02:10:15;;;;;;;6.28;3.65;;;;;;;3.25;100.00;93246.97;5072588;28;20071;-77
2024/02/05 02:12:41;;;;;;;6.90;3.63;;;;;;;3.34;100.00;93227.44;5071713;28;20052;-77
2024/02/05 02:15:09;;;;;;;4.82;2.50;;;;;;;3.40;100.00;93221.69;5072479;28;20052;-75
2024/02/05 02:17:41;;;;;;;5.43;3.40;;;;;;;3.56;100.00;93223.34;5071327;28;20047;-76
2024/02/05 02:20:11;;;;;;;4.75;2.80;;;;;;;3.63;100.00;93220.16;5079377;28;20048;-77
2024/02/05 02:22:53;;;;;;;5.78;3.05;;;;;;;3.71;100.00;93207.41;5077726;28;20045;-77
2024/02/05 02:25:21;;;;;;;4.20;2.60;;;;;;;3.76;100.00;93212.78;5075103;28;20055;-77
2024/02/05 02:27:48;;;;;;;5.50;2.97;;;;;;;3.74;100.00;93218.03;5075128;28;20040;-77
2024/02/05 02:30:19;;;;;;;4.30;2.40;;;;;;;3.73;100.00;93210.56;5074066;28;20048;-76
2024/02/05 02:32:57;;;;;;;5.10;2.85;;;;;;;3.76;100.00;93207.72;5082228;28;20110;-75
2024/02/05 02:35:29;;;;;;;4.13;2.38;;;;;;;3.87;100.00;93211.59;5074842;28;20057;-76
2024/02/05 02:38:00;;;;;;;3.80;2.28;;;;;;;3.98;100.00;93201.06;5069095;28;20044;-76
2024/02/05 02:40:31;;;;;;;3.53;2.30;;;;;;;4.10;100.00;93198.09;5072794;28;20055;-76
2024/02/05 02:43:02;;;;;;;3.33;1.90;;;;;;;4.20;100.00;93187.69;5076717;28;20044;-76
2024/02/05 02:45:30;;;;;;;5.13;2.03;;;;;;;4.34;100.00;93186.97;5080775;28;20047;-76
2024/02/05 02:47:57;;;;;;;4.90;2.60;;;;;;;4.43;100.00;93194.53;5085953;28;20109;-76
2024/02/05 02:50:25;;;;;;;5.50;2.60;;;;;;;4.38;100.00;93189.94;5069749;28;20047;-76
2024/02/05 02:52:52;;;;;;;6.13;2.35;;;;;;;4.36;100.00;93187.56;5072285;28;20049;-76
2024/02/05 02:55:19;;;;;;;4.43;2.28;;;;;;;4.38;100.00;93192.50;5079102;28;20044;-76
2024/02/05 02:57:47;;;;;;;4.50;2.38;;;;;;;4.39;100.00;93169.44;5072007;28;20055;-77
2024/02/05 03:00:16;;;;;;;6.40;2.22;;;;;;;4.50;100.00;93198.75;5076631;28;20054;-75
2024/02/05 03:02:43;;;;;;;4.15;1.98;;;;;;;4.55;100.00;93190.63;5071020;28;20428;-75
2024/02/05 03:05:10;;;;;;;5.40;2.22;;;;;;;4.58;100.00;93194.56;5069643;28;20060;-75
2024/02/05 03:07:38;;;;;;;5.07;2.30;;;;;;;4.58;100.00;93200.44;5075832;28;20043;-75
2024/02/05 03:10:05;;;;;;;3.88;2.22;;;;;;;4.51;100.00;93197.81;5069750;28;20053;-75
2024/02/05 03:12:33;;;;;;;6.00;2.33;;;;;;;4.37;100.00;93181.56;5075965;28;20289;-74
2024/02/05 03:15:01;;;;;;;4.88;2.55;;;;;;;4.41;100.00;93182.00;5070329;28;20048;-75
2024/02/05 03:17:28;;;;;;;6.68;2.90;;;;;;;4.50;100.00;93177.63;5075271;28;20055;-74
2024/02/05 03:19:55;;;;;;;5.28;2.95;;;;;;;4.54;100.00;93192.34;5072375;28;20086;-75
2024/02/05 03:22:22;;;;;;;4.40;2.33;;;;;;;4.60;100.00;93193.44;5070568;28;20044;-75
2024/02/05 03:24:49;;;;;;;3.30;1.95;;;;;;;4.63;100.00;93199.94;5071769;28;20059;-75
2024/02/05 03:27:16;;;;;;;5.10;2.50;;;;;;;4.62;100.00;93198.31;5070879;28;20492;-75
2024/02/05 03:29:43;;;;;;;4.80;2.38;;;;;;;4.53;100.00;93182.34;5068756;28;20237;-76
2024/02/05 03:32:11;;;;;;;5.18;2.10;;;;;;;4.64;100.00;93196.41;5070411;28;20041;-76
2024/02/05 03:34:38;;;;;;;5.03;2.65;;;;;;;4.59;100.00;93191.06;5074493;28;20055;-76
2024/02/05 03:37:05;;;;;;;5.15;2.45;;;;;;;4.58;100.00;93192.81;5071193;28;20496;-75
2024/02/05 03:39:32;;;;;;;5.47;2.90;;;;;;;4.65;100.00;93195.44;5068572;28;20792;-75
2024/02/05 03:41:59;;;;;;;5.35;2.40;;;;;;;4.64;99.85;93196.41;5071562;28;20041;-75
2024/02/05 03:44:27;;;;;;;7.28;3.45;;;;;;;4.63;99.81;93193.06;5068428;28;20059;-75
2024/02/05 03:47:13;;;;;;;5.18;2.95;;;;;;;4.65;99.45;93185.28;5068985;28;20055;-75
2024/02/05 03:49:45;;;;;;;5.30;2.42;;;;;;;4.28;99.44;93135.06;5071103;28;20129;-75
2024/02/05 03:52:12;;;;;;;5.13;2.70;;;;;;;4.61;99.23;93194.22;5071648;28;20052;-75
2024/02/05 03:54:40;;;;;;;6.32;2.78;;;;;;;4.51;100.00;93189.38;5071033;28;20062;-75
2024/02/05 03:57:07;;;;;;;8.38;3.88;;;;;;;4.53;100.00;93190.78;5071760;28;20044;-75
2024/02/05 03:59:34;;;;;;;7.35;4.22;;;;;;;4.36;100.00;93163.91;5078698;28;21530;-75
2024/02/05 04:02:03;;;;;;;13.45;6.38;;;;;;;4.77;99.44;93204.22;5077345;28;20048;-75
2024/02/05 04:04:29;;;;;;;6.28;3.20;;;;;;;4.73;98.36;93205.56;5075091;28;20468;-74
2024/02/05 04:06:59;;;;;;;3.42;2.08;;;;;;;4.85;98.14;93210.22;5075553;28;20036;-74
2024/02/05 04:09:26;;;;;;;4.50;2.25;;;;;;;4.76;97.77;93192.47;5073122;28;20083;-75
2024/02/05 04:11:54;;;;;;;4.45;2.03;;;;;;;4.90;97.09;93198.56;5071336;28;20127;-75
2024/02/05 04:14:21;;;;;;;6.18;2.53;;;;;;;5.05;96.14;93218.91;5071524;28;20396;-74
2024/02/05 04:16:49;;;;;;;5.63;3.40;;;;;;;5.18;95.63;93223.41;5069493;28;20063;-75
2024/02/05 04:19:17;;;;;;;5.43;2.70;;;;;;;4.65;95.69;93150.47;5070271;28;20063;-75
2024/02/05 04:21:44;;;;;;;4.82;2.20;;;;;;;5.16;94.97;93214.34;5067854;28;20131;-73
2024/02/05 04:24:12;;;;;;;12.85;5.72;;;;;;;5.36;94.19;93232.44;5077250;28;20622;-73
2024/02/05 04:26:39;;;;;;;8.95;4.53;;;;;;;5.38;93.36;93229.72;5074159;28;20086;-73
2024/02/05 04:29:14;;;;;;;9.80;5.40;;;;;;;5.24;92.82;93221.91;5071028;28;20051;-73
2024/02/05 04:31:41;;;;;;;6.97;3.00;;;;;;;5.30;92.58;93241.59;5068963;28;20131;-73
2024/02/05 04:34:08;;;;;;;6.47;3.53;;;;;;;5.30;92.96;93228.84;5071215;28;20419;-73
2024/02/05 04:36:35;;;;;;;4.38;2.22;;;;;;;5.17;93.16;93228.66;5067966;28;20052;-73
2024/02/05 04:39:04;;;;;;;5.43;2.45;;;;;;;5.34;92.44;93224.97;5067165;28;20052;-73
2024/02/05 04:41:32;;;;;;;9.35;4.47;;;;;;;5.37;91.52;93216.19;5077538;28;20051;-73
2024/02/05 04:43:59;;;;;;;56.17;23.65;;;;;;;5.32;91.87;93229.47;5069361;28;20053;-73
2024/02/05 04:46:58;;;;;;;38.05;14.35;;;;;;;4.80;91.98;93152.19;5067405;28;20506;-73
2024/02/05 04:49:25;;;;;;;18.52;8.27;;;;;;;5.31;92.37;93242.38;5070825;28;20136;-73
2024/02/05 04:51:52;;;;;;;11.95;6.10;;;;;;;5.30;92.43;93246.69;5072956;28;20047;-73
2024/02/05 04:54:19;;;;;;;9.73;4.72;;;;;;;5.28;92.46;93252.91;5073923;28;20083;-73
2024/02/05 04:56:47;;;;;;;11.65;7.40;;;;;;;5.26;92.38;93260.72;5068045;28;20515;-73
2024/02/05 04:59:14;;;;;;;16.40;7.88;;;;;;;5.13;92.63;93256.25;5068681;28;20054;-74
2024/02/05 05:01:41;;;;;;;14.70;8.02;;;;;;;5.13;92.71;93258.78;5072666;28;20044;-74
2024/02/05 05:04:08;;;;;;;17.77;7.85;;;;;;;5.12;92.81;93257.22;5071916;28;20055;-73
2024/02/05 05:06:35;;;;;;;14.57;6.82;;;;;;;5.06;93.31;93255.38;5079574;28;20040;-73
2024/02/05 05:09:02;;;;;;;12.18;4.85;;;;;;;5.04;93.37;93249.63;5070478;28;20052;-73
2024/02/05 05:11:29;;;;;;;9.75;5.05;;;;;;;4.97;93.84;93254.66;5073308;28;20138;-73
2024/02/05 05:13:57;;;;;;;11.13;4.80;;;;;;;5.00;93.75;93268.78;5069477;28;20405;-73
2024/02/05 05:16:26;;;;;;;19.10;9.20;;;;;;;4.89;94.20;93263.16;5069464;28;20048;-73
2024/02/05 05:18:53;;;;;;;10.00;4.80;;;;;;;4.90;94.29;93274.91;5068690;28;20523;-73
2024/02/05 05:21:20;;;;;;;11.32;5.18;;;;;;;4.82;94.49;93272.44;5067485;28;20054;-73
2024/02/05 05:23:47;;;;;;;14.60;6.80;;;;;;;4.78;95.00;93271.97;5073141;28;20786;-73
2024/02/05 05:26:14;;;;;;;12.30;6.07;;;;;;;4.72;95.04;93275.22;5073088;28;20040;-73
2024/02/05 05:28:43;;;;;;;11.05;4.57;;;;;;;4.75;95.41;93269.78;5072772;28;20148;-73
2024/02/05 05:31:16;;;;;;;11.70;5.47;;;;;;;4.81;95.52;93265.75;5069767;28;20044;-73
2024/02/05 05:33:43;;;;;;;11.63;7.05;;;;;;;4.73;95.55;93263.28;5076514;28;20050;-73
2024/02/05 05:36:10;;;;;;;12.15;4.68;;;;;;;4.74;95.53;93268.22;5073516;28;20055;-73
2024/02/05 05:38:37;;;;;;;10.18;5.40;;;;;;;4.66;95.39;93273.34;5070757;28;20068;-73
2024/02/05 05:41:04;;;;;;;19.40;9.80;;;;;;;4.70;95.91;93273.81;5075815;28;20140;-73
2024/02/05 05:43:31;;;;;;;13.18;6.18;;;;;;;4.47;95.82;93247.44;5075001;28;20048;-73
2024/02/05 05:45:58;;;;;;;15.20;5.68;;;;;;;4.67;95.96;93273.19;5069404;28;20549;-73
2024/02/05 05:48:27;;;;;;;8.52;4.57;;;;;;;4.60;96.18;93295.19;5074640;28;20631;-73
2024/02/05 05:50:54;;;;;;;79.85;35.45;;;;;;;4.63;96.64;93302.47;5071248;28;20113;-73
2024/02/05 05:53:21;;;;;;;15.70;7.13;;;;;;;4.60;96.51;93307.13;5071151;28;20044;-73
2024/02/05 05:55:49;;;;;;;16.90;9.05;;;;;;;4.62;95.61;93293.28;5071143;28;20500;-73
2024/02/05 05:58:16;;;;;;;29.42;13.40;;;;;;;4.64;95.39;93296.41;5070558;28;20049;-73
2024/02/05 06:00:43;;;;;;;30.35;13.60;;;;;;;4.71;95.08;93291.44;5073686;28;20090;-73
2024/02/05 06:03:11;;;;;;;17.17;8.80;;;;;;;4.45;95.37;93263.81;5075510;28;20052;-73
2024/02/05 06:05:40;;;;;;;15.70;7.82;;;;;;;4.66;95.83;93284.34;5070601;28;20057;-73
2024/02/05 06:08:07;;;;;;;15.43;8.45;;;;;;;4.59;95.76;93286.00;5073494;28;20508;-73
2024/02/05 06:10:34;;;;;;;15.57;8.00;;;;;;;4.61;96.29;93290.88;5070578;28;20083;-73
2024/02/05 06:13:20;;;;;;;21.20;9.27;;;;;;;4.78;96.25;93289.03;5070286;28;20059;-73
2024/02/05 06:15:46;;;;;;;;;;;;;;;4.80;95.55;93289.63;5071442;28;20040;-73
2024/02/05 06:18:13;;;;;;;13.23;7.13;;;;;;;4.67;95.94;93288.47;5072600;28;19974;-73
2024/02/05 06:20:42;;;;;;;13.65;7.57;;;;;;;4.68;96.14;93286.72;5067816;28;20062;-73
2024/02/05 06:23:08;;;;;;;15.98;7.72;;;;;;;4.73;96.21;93291.28;5073915;28;20401;-73
2024/02/05 06:25:35;;;;;;;20.63;11.68;;;;;;;4.77;95.64;93292.53;5074399;28;20074;-73
2024/02/05 06:28:02;;;;;;;46.03;32.75;;;;;;;4.50;95.88;93302.25;5075403;28;20054;-73
2024/02/05 06:30:29;;;;;;;39.28;24.05;;;;;;;4.24;98.11;93324.53;5072616;28;20403;-73
2024/02/05 06:32:56;;;;;;;21.30;11.15;;;;;;;4.14;98.13;93324.72;5073821;28;20967;-73
2024/02/05 06:35:23;;;;;;;22.67;12.10;;;;;;;4.16;97.51;93328.84;5078567;28;20044;-73
2024/02/05 06:37:52;;;;;;;22.80;11.90;;;;;;;4.30;98.58;93312.88;5083315;28;20428;-73
2024/02/05 06:40:18;;;;;;;20.98;11.43;;;;;;;4.32;98.28;93310.16;5072331;28;20052;-73
2024/02/05 06:42:46;;;;;;;27.90;15.65;;;;;;;4.43;98.18;93312.31;5072730;28;20123;-73
2024/02/05 06:45:13;;;;;;;45.70;30.70;;;;;;;4.48;98.44;93316.88;5075135;28;20048;-73
2024/02/05 06:47:40;;;;;;;62.25;39.72;;;;;;;4.49;95.53;93321.03;5073272;28;20408;-73
2024/02/05 06:50:10;;;;;;;54.72;32.30;;;;;;;4.35;94.59;93310.63;5078985;28;20055;-73
2024/02/05 06:52:37;;;;;;;49.17;32.42;;;;;;;4.11;96.83;93311.53;5075155;28;20048;-73
2024/02/05 06:55:05;;;;;;;39.75;25.52;;;;;;;3.79;100.00;93320.91;5073225;28;20044;-73
2024/02/05 06:57:35;;;;;;;76.45;40.35;;;;;;;3.52;100.00;93316.06;5072200;28;20047;-73
2024/02/05 07:00:03;;;;;;;57.83;33.55;;;;;;;3.31;100.00;93326.75;5075105;28;20056;-73
2024/02/05 07:02:30;;;;;;;68.72;37.97;;;;;;;3.38;100.00;93317.53;5079893;28;20047;-73
2024/02/05 07:04:57;;;;;;;57.33;32.95;;;;;;;3.53;100.00;93329.56;5077343;28;20415;-73
2024/02/05 07:07:24;;;;;;;76.95;44.17;;;;;;;3.32;100.00;93324.06;5072347;28;20051;-73
2024/02/05 07:09:51;;;;;;;86.47;47.30;;;;;;;3.48;100.00;93325.75;5071804;28;20420;-72
2024/02/05 07:12:20;;;;;;;104.13;60.17;;;;;;;3.46;100.00;93320.06;5074063;28;20055;-73
2024/02/05 07:14:48;;;;;;;75.78;42.80;;;;;;;3.01;100.00;93316.34;5069609;28;20047;-73
2024/02/05 07:17:16;;;;;;;63.58;35.28;;;;;;;3.18;100.00;93324.72;5070479;28;20052;-73
2024/02/05 07:19:43;;;;;;;75.43;37.40;;;;;;;2.93;100.00;93327.28;5070094;28;20055;-72
2024/02/05 07:22:11;;;;;;;85.45;40.25;;;;;;;2.66;100.00;93317.31;5070043;28;20047;-72
2024/02/05 07:24:38;;;;;;;82.75;44.83;;;;;;;2.84;100.00;93331.56;5071085;28;20044;-72
2024/02/05 07:27:06;;;;;;;103.63;47.28;;;;;;;2.79;100.00;93336.34;5070769;28;20051;-72
2024/02/05 07:29:34;;;;;;;96.70;50.17;;;;;;;2.91;100.00;93332.53;5070706;28;20492;-71
2024/02/05 07:32:01;;;;;;;106.30;53.28;;;;;;;3.13;100.00;93322.66;5069201;28;20132;-72
2024/02/05 07:34:31;;;;;;;83.68;41.28;;;;;;;3.17;100.00;93305.38;5078442;28;20047;-72
2024/02/05 07:36:58;;;;;;;92.95;48.67;;;;;;;3.23;100.00;93324.25;5073456;28;20050;-72
2024/02/05 07:39:26;;;;;;;108.45;58.17;;;;;;;3.51;100.00;93328.94;5072102;28;20067;-72
2024/02/05 07:41:53;;;;;;;90.60;47.47;;;;;;;3.70;100.00;93304.91;5071555;28;20443;-72
2024/02/05 07:44:22;;;;;;;94.38;48.20;;;;;;;3.81;100.00;93331.69;5074949;28;20076;-72
2024/02/05 07:46:52;;;;;;;99.88;55.03;;;;;;;3.73;100.00;93340.94;5069663;28;20049;-72
2024/02/05 07:49:22;;;;;;;121.57;61.20;;;;;;;3.86;100.00;93326.91;5071409;28;20421;-72
2024/02/05 07:51:50;;;;;;;88.57;45.78;;;;;;;3.98;100.00;93329.91;5069041;28;20096;-72
2024/02/05 07:54:24;;;;;;;98.75;42.75;;;;;;;3.92;100.00;93336.41;5072931;28;20048;-72
2024/02/05 07:56:52;;;;;;;118.70;62.10;;;;;;;4.10;100.00;93320.13;5074099;28;20044;-72
2024/02/05 07:59:19;;;;;;;100.97;51.17;;;;;;;4.48;100.00;93332.94;5070676;28;20431;-72
2024/02/05 08:01:50;;;;;;;94.30;42.90;;;;;;;4.69;100.00;93311.19;5068980;28;20502;-72
2024/02/05 08:04:18;;;;;;;102.13;48.05;;;;;;;4.92;100.00;93325.66;5073073;28;20135;-72
2024/02/05 08:06:45;;;;;;;86.05;46.40;;;;;;;5.15;100.00;93310.34;5070585;28;20047;-72
2024/02/05 08:09:12;;;;;;;98.40;49.25;;;;;;;5.48;100.00;93304.13;5069816;28;20055;-72
2024/02/05 08:11:40;;;;;;;96.57;47.85;;;;;;;5.56;100.00;93324.41;5072081;28;20063;-72
2024/02/05 08:14:09;;;;;;;73.13;34.90;;;;;;;5.40;98.64;93309.28;5069471;28;20052;-72
2024/02/05 08:16:37;;;;;;;80.45;36.10;;;;;;;5.68;96.71;93312.03;5071480;28;20130;-72
2024/02/05 08:19:05;;;;;;;84.30;39.35;;;;;;;6.06;96.18;93295.81;5068262;28;20051;-72
2024/02/05 08:21:34;;;;;;;88.45;43.30;;;;;;;6.34;95.09;93307.13;5072314;28;20045;-72
2024/02/05 08:24:01;;;;;;;117.88;58.90;;;;;;;6.55;92.41;93293.56;5071306;28;20053;-72
2024/02/05 08:26:28;;;;;;;74.13;44.90;;;;;;;6.58;93.02;93310.28;5072109;28;20098;-72
2024/02/05 08:28:55;;;;;;;80.72;39.38;;;;;;;6.88;92.45;93300.72;5072225;28;20052;-72
2024/02/05 08:31:22;;;;;;;64.05;35.75;;;;;;;6.97;90.27;93305.69;5080476;28;20052;-72
2024/02/05 08:33:51;;;;;;;94.45;43.83;;;;;;;7.19;89.76;93307.22;5074295;28;20408;-72
2024/02/05 08:36:18;;;;;;;131.02;59.78;;;;;;;7.34;88.27;93299.50;5073953;28;20435;-72
2024/02/05 08:38:46;;;;;;;83.03;43.42;;;;;;;6.97;90.87;93309.03;5068522;28;20432;-73
2024/02/05 08:41:13;;;;;;;76.18;38.45;;;;;;;6.80;91.13;93314.41;5072478;28;20044;-72
2024/02/05 08:43:40;;;;;;;72.85;36.83;;;;;;;7.02;90.60;93318.69;5075469;28;20982;-72
2024/02/05 08:46:08;;;;;;;69.18;41.30;;;;;;;6.80;91.37;93326.38;5073841;28;20040;-73
2024/02/05 08:48:36;;;;;;;61.17;36.97;;;;;;;6.77;92.93;93332.63;5072791;28;20052;-72
2024/02/05 08:51:03;;;;;;;64.13;32.97;;;;;;;6.81;93.52;93318.53;5072063;28;20037;-73
2024/02/05 08:53:30;;;;;;;58.35;32.85;;;;;;;7.04;92.97;93325.19;5068417;28;20161;-73
2024/02/05 08:55:59;;;;;;;63.17;34.30;;;;;;;7.36;92.57;93314.59;5070563;28;20599;-73
2024/02/05 08:58:26;;;;;;;66.40;33.70;;;;;;;7.75;93.76;93286.91;5072445;28;20693;-73
2024/02/05 09:00:53;;;;;;;54.95;28.50;;;;;;;8.20;92.40;93303.59;5069240;28;20088;-72
2024/02/05 09:03:21;;;;;;;101.93;48.10;;;;;;;8.41;88.45;93306.03;5071824;28;20052;-72
2024/02/05 09:05:51;;;;;;;70.07;35.03;;;;;;;8.82;85.30;93301.78;5070968;28;20049;-72
2024/02/05 09:08:18;;;;;;;60.97;29.73;;;;;;;9.17;85.59;93285.41;5072161;28;20048;-72
2024/02/05 09:10:46;;;;;;;36.83;20.30;;;;;;;9.62;79.04;93295.00;5069551;28;20067;-72
2024/02/05 09:13:15;;;;;;;19.67;8.27;;;;;;;10.25;75.72;93320.25;5067494;28;20578;-72
2024/02/05 09:15:43;;;;;;;10.48;5.43;;;;;;;10.80;69.82;93317.19;5071950;28;20869;-72
2024/02/05 09:18:10;;;;;;;8.95;3.92;;;;;;;11.17;66.91;93316.56;5071915;28;20056;-72
2024/02/05 09:20:37;;;;;;;6.18;3.60;;;;;;;11.49;65.83;93315.69;5069254;28;20062;-72
2024/02/05 09:23:04;;;;;;;6.72;2.72;;;;;;;11.83;63.55;93331.59;5067822;28;20055;-72
2024/02/05 09:25:31;;;;;;;5.22;2.20;;;;;;;12.21;60.85;93319.50;5069697;28;20048;-73
2024/02/05 09:27:58;;;;;;;6.85;2.38;;;;;;;12.42;61.56;93312.34;5069045;28;20059;-72
2024/02/05 09:30:26;;;;;;;8.07;2.78;;;;;;;12.57;58.34;93322.25;5071793;28;20040;-72
2024/02/05 09:32:53;;;;;;;11.75;4.22;;;;;;;12.88;60.07;93317.88;5069494;28;20057;-72
2024/02/05 09:35:20;;;;;;;14.07;3.72;;;;;;;13.20;56.79;93312.41;5068992;28;20048;-72
2024/02/05 09:37:47;;;;;;;6.13;2.50;;;;;;;13.34;56.43;93297.47;5069276;28;20044;-72
2024/02/05 09:40:15;;;;;;;10.30;2.80;;;;;;;13.52;54.23;93300.97;5070753;28;20614;-72
2024/02/05 09:42:43;;;;;;;14.60;4.43;;;;;;;13.70;55.10;93301.91;5070024;28;20040;-72
2024/02/05 09:45:12;;;;;;;17.33;3.55;;;;;;;13.75;53.78;93261.47;5073532;28;20052;-72
2024/02/05 09:47:42;;;;;;;4.47;2.45;;;;;;;14.08;51.21;93287.69;5067927;28;20058;-72
2024/02/05 09:50:11;;;;;;;5.93;2.30;;;;;;;14.25;52.49;93292.09;5071644;28;20055;-72
2024/02/05 09:52:40;;;;;;;9.02;4.38;;;;;;;14.47;53.39;93281.13;5074045;28;20059;-72
2024/02/05 09:55:10;;;;;;;7.95;3.53;;;;;;;14.66;52.46;93273.94;5068786;28;20493;-73
2024/02/05 09:57:38;;;;;;;4.78;2.28;;;;;;;14.67;51.15;93284.06;5070712;28;20040;-72
2024/02/05 10:00:07;;;;;;;22.45;4.63;;;;;;;14.77;53.14;93282.69;5071697;28;20604;-72
2024/02/05 10:02:36;;;;;;;9.38;2.40;;;;;;;15.03;48.99;93290.84;5081039;28;20048;-72
2024/02/05 10:05:09;;;;;;;7.30;2.17;;;;;;;15.25;48.02;93279.78;5072147;28;20051;-72
2024/02/05 10:07:40;;;;;;;6.18;2.03;;;;;;;15.24;47.66;93263.50;5075930;28;20515;-72
2024/02/05 10:10:09;;;;;;;6.25;2.25;;;;;;;15.37;46.25;93264.97;5072685;28;20044;-73
2024/02/05 10:12:38;;;;;;;3.83;1.60;;;;;;;15.38;47.15;93260.56;5071509;28;20048;-73
2024/02/05 10:15:08;;;;;;;5.90;2.33;;;;;;;15.41;46.79;93249.75;5073218;28;20055;-73
2024/02/05 10:17:34;;;;;;;7.82;2.60;;;;;;;15.57;47.07;93255.91;5071951;28;20044;-73
2024/02/05 10:20:03;;;;;;;4.85;2.35;;;;;;;15.65;46.16;93265.84;5076176;28;20503;-73
2024/02/05 10:22:32;;;;;;;10.75;3.08;;;;;;;15.81;45.93;93264.22;5071668;28;20044;-72
2024/02/05 10:25:01;;;;;;;8.63;2.60;;;;;;;15.90;46.26;93262.81;5070200;28;20058;-72
2024/02/05 10:27:28;;;;;;;4.20;2.08;;;;;;;16.05;44.94;93255.47;5074172;28;20128;-73
2024/02/05 10:30:00;;;;;;;6.60;3.38;;;;;;;15.88;45.09;93251.88;5071994;28;20053;-72
2024/02/05 10:32:27;;;;;;;5.45;2.92;;;;;;;16.06;45.59;93252.63;5074024;28;20504;-72
2024/02/05 10:34:55;;;;;;;6.55;2.20;;;;;;;16.23;44.71;93242.19;5071327;28;20658;-72
2024/02/05 10:37:28;;;;;;;5.90;2.55;;;;;;;16.25;41.86;93236.75;5084150;28;20468;-72
2024/02/05 10:40:06;;;;;;;5.60;2.65;;;;;;;16.43;44.53;93239.00;5070857;28;20052;-72
2024/02/05 10:42:33;;;;;;;3.42;1.75;;;;;;;16.49;42.51;93237.25;5070815;28;20052;-72
2024/02/05 10:45:00;;;;;;;3.55;1.95;;;;;;;16.74;41.47;93242.88;5072991;28;20055;-72
2024/02/05 10:47:27;;;;;;;5.38;2.70;;;;;;;16.87;43.06;93229.53;5076327;28;20055;-72
2024/02/05 10:49:56;;;;;;;4.22;1.92;;;;;;;16.96;42.56;93240.22;5070484;28;20054;-72
2024/02/05 10:52:31;;;;;;;30.85;12.80;;;;;;;16.96;41.05;93224.66;5071300;28;20044;-72
2024/02/05 10:55:02;;;;;;;7.93;3.28;;;;;;;17.16;40.81;93218.84;5073003;28;20461;-72
2024/02/05 10:57:32;;;;;;;6.63;3.60;;;;;;;17.25;42.61;93208.00;5075973;28;20044;-72
2024/02/05 10:59:59;;;;;;;9.20;3.55;;;;;;;17.23;40.84;93206.41;5071884;28;20093;-72
2024/02/05 11:02:29;;;;;;;10.85;4.15;;;;;;;17.36;42.49;93202.59;5074259;28;20433;-72
2024/02/05 11:05:00;;;;;;;6.00;2.70;;;;;;;17.52;41.80;93209.69;5069651;28;20052;-72
2024/02/05 11:07:32;;;;;;;4.57;2.35;;;;;;;17.46;40.51;93195.91;5069107;28;20059;-72
2024/02/05 11:10:02;;;;;;;76.75;44.47;;;;;;;17.67;41.29;93201.19;5075845;28;20044;-72
2024/02/05 11:12:32;;;;;;;8.48;5.00;;;;;;;17.71;40.36;93197.81;5072031;28;20135;-73
2024/02/05 11:15:19;;;;;;;7.78;2.63;;;;;;;17.70;41.64;93198.88;5078023;28;20501;-72
2024/02/05 11:17:48;;;;;;;4.45;2.42;;;;;;;17.75;40.88;93209.28;5074642;28;20062;-72
2024/02/05 11:20:16;;;;;;;5.75;2.63;;;;;;;17.59;39.56;93200.63;5068873;28;20515;-72
2024/02/05 11:22:46;;;;;;;2.58;1.25;;;;;;;16.87;39.66;93200.97;5069982;28;20508;-72
2024/02/05 11:25:14;;;;;;;8.48;2.33;;;;;;;16.92;41.97;93193.25;5070167;28;20052;-72
2024/02/05 11:27:44;;;;;;;7.05;3.70;;;;;;;17.34;42.12;93190.91;5074599;28;20040;-72
2024/02/05 11:30:15;;;;;;;6.68;2.67;;;;;;;17.48;40.44;93188.63;5072074;28;20059;-72
2024/02/05 11:32:42;;;;;;;6.35;3.22;;;;;;;17.67;42.83;93186.38;5071541;28;20049;-72
2024/02/05 11:35:13;;;;;;;6.25;2.10;;;;;;;17.74;42.15;93179.13;5070936;28;20420;-72